METAR Data
IDs: Format: Raw Decoded Include TAF

Data at: 1725 UTC 03 Jun 2020

KVIH 031653Z AUTO 21008KT 10SM CLR 29/22 A2995 RMK AO2 SLP130 T02890217
KVIH 031553Z AUTO 24008KT 210V270 10SM CLR 28/22 A2996 RMK AO2 SLP132 T02780217
KVIH 031453Z AUTO 24008KT 10SM SCT060 26/21 A2998 RMK AO2 SLP141 T02560206 53001
KVIH 031353Z AUTO 23010KT 10SM CLR 24/19 A2999 RMK AO2 SLP144 T02390194
KVIH 031253Z AUTO 21010KT 10SM CLR 22/18 A2997 RMK AO2 SLP139 T02170178
KVIH 031153Z AUTO 21007KT 10SM CLR 19/17 A2998 RMK AO2 SLP140 T01940172 10200 20178 55002
KVIH 031053Z AUTO 21007KT 10SM CLR 18/16 A2997 RMK AO2 SLP138 T01780161
KVIH 030953Z AUTO 22007KT 10SM CLR 18/17 A2997 RMK AO2 SLP139 T01830167
KVIH 030853Z AUTO 21008KT 10SM CLR 19/17 A2998 RMK AO2 SLP141 T01890167 58011
KVIH 030753Z AUTO 20007KT 10SM CLR 19/17 A3000 RMK AO2 SLP148 T01890167
KVIH 030653Z AUTO 20007KT 10SM CLR 19/17 A3001 RMK AO2 SLP151 T01890167
KVIH 030553Z AUTO 21007KT 10SM CLR 20/17 A3002 RMK AO2 SLP153 T02000167 10267 20194 402940167 50004
KVIH 030453Z AUTO 20007KT 10SM CLR 19/17 A3002 RMK AO2 SLP154 T01940167
KVIH 030353Z AUTO 21007KT 10SM CLR 21/17 A3000 RMK AO2 SLP149 T02110172
KVIH 030253Z AUTO 19007KT 10SM CLR 21/17 A3000 RMK AO2 SLP150 T02110172 55001
KVIH 030153Z AUTO 19006KT 10SM CLR 22/17 A3000 RMK AO2 SLP148 T02170172
KVIH 030053Z AUTO 20005KT 10SM CLR 24/19 A3000 RMK AO2 SLP148 T02390189
KVIH 022353Z AUTO 22007KT 10SM CLR 27/18 A3001 RMK AO2 SLP151 T02670183 10294 20267 58008
KVIH 022253Z AUTO 24009KT 10SM CLR 28/17 A3002 RMK AO2 SLP154 T02830167
KVIH 022153Z AUTO 23010KT 10SM CLR 29/17 A3002 RMK AO2 SLP155 T02940167
KVIH 022053Z AUTO 22009KT 10SM CLR 29/18 A3003 RMK AO2 SLP158 T02940178 57018
KVIH 021953Z AUTO 20008KT 10SM CLR 29/18 A3005 RMK AO2 SLP164 T02890178
KVIH 021853Z AUTO 23007KT 10SM CLR 28/17 A3007 RMK AO2 SLP170 T02830172
KVIH 021753Z AUTO 20007KT 10SM CLR 28/18 A3008 RMK AO2 SLP176 T02780183 10278 20172 57011
KVIH 021653Z AUTO 22009KT 10SM CLR 27/19 A3010 RMK AO2 SLP180 T02670189
KVIH 021553Z AUTO 22007KT 10SM CLR 25/18 A3011 RMK AO2 SLP184 T02500178
KVIH 021453Z AUTO 24011KT 10SM CLR 24/17 A3012 RMK AO2 SLP189 T02390172 50003
KVIH 021353Z AUTO 22011KT 10SM CLR 22/17 A3012 RMK AO2 SLP190 T02220167
KVIH 021253Z AUTO 22010KT 10SM CLR 20/16 A3012 RMK AO2 SLP189 T02000156
KVIH 021153Z AUTO 20008KT 10SM CLR 17/15 A3011 RMK AO2 SLP187 T01720150 10194 20167 53008
KVIH 021053Z AUTO 21008KT 10SM CLR 17/14 A3010 RMK AO2 SLP182 T01670144
KVIH 020953Z AUTO 20008KT 10SM CLR 17/14 A3009 RMK AO2 SLP179 T01720144
KVIH 020853Z AUTO 20008KT 10SM CLR 17/14 A3009 RMK AO2 SLP178 T01720144 56007
KVIH 020753Z AUTO 20008KT 10SM CLR 17/14 A3009 RMK AO2 SLP178 T01720144
KVIH 020653Z AUTO 20007KT 10SM CLR 18/14 A3009 RMK AO2 SLP180 T01830144
KVIH 020553Z AUTO 20008KT 10SM CLR 19/15 A3011 RMK AO2 SLP185 T01940150 10261 20194 402780161 58005